NCAR-RAP Real-Time Weather Data

Output produced by METARs form (10 April 2020  07:12 UTC)
found at http://weather.rap.ucar.edu/surface/
 
KLFK 100653Z AUTO 03005KT 10SM -RA BKN016 BKN075 OVC110 18/16 A2994 RMK AO2 RAE04B23 SLP135 P0000 T01780161
KLFK 100610Z AUTO 05006KT 10SM SCT014 OVC110 18/17 A2993 RMK AO2 RAE04 P0000 T01780167
KLFK 100553Z AUTO 10006KT 10SM -RA OVC016 18/17 A2994 RMK AO2 RAB06 SLP133 P0002 60040 T01830167 10200 20183 403060183 50012
KLFK 100535Z AUTO 09006KT 10SM -RA BKN016 OVC110 18/17 A2996 RMK AO2 RAB06 P0001 T01830167
KLFK 100453Z AUTO 01007KT 10SM OVC110 19/17 A2996 RMK AO2 RAB01E48 PRESRR SLP142 P0001 T01890172
KLFK 100353Z AUTO 35006KT 10SM FEW090 BKN110 19/18 A2994 RMK AO2 RAB0255E30 PRESRR SLP133 P0000 T01940178
KLFK 100328Z AUTO 03005KT 10SM -RA SCT010 BKN110 19/18 A2991 RMK AO2 RAB0255 P0000 T01940183
KLFK 100320Z AUTO 01004KT 10SM -RA BKN010 BKN110 19/18 A2992 RMK AO2 RAB0255 P0000 T01940183
KLFK 100305Z AUTO 01003KT 10SM -RA BKN009 OVC120 19/18 A2992 RMK AO2 RAB0255 PRESRR P0000 T01940183
KLFK 100253Z AUTO 02006KT 10SM FEW009 BKN120 19/18 A2990 RMK AO2 RAE34 SLP122 P0002 60037 T01940183 55004
KLFK 100153Z AUTO 11003KT 9SM -RA FEW080 OVC110 20/19 A2989 RMK AO2 RAE0054B45 PRESRR SLP117 P0000 T02000189
KLFK 100053Z AUTO 10004KT 10SM -RA FEW017 SCT040 SCT090 20/19 A2986 RMK AO2 LTG DSNT E TSE09 SLP107 P0035 T02000189
KLFK 100029Z AUTO VRB06KT 4SM RA BR FEW013 OVC045 20/19 A2986 RMK AO2 LTG DSNT N-SE TSE09 P0033 T02000189
KLFK 100015Z AUTO 31006KT 3SM VCTS RA BR FEW005 SCT025 OVC040 20/19 A2989 RMK AO2 LTG DSNT NE-SE TSE09 P0026 T02000189
KLFK 100009Z AUTO 36006KT 1 1/4SM VCTS +RA BR FEW006 BKN031 OVC075 19/19 A2987 RMK AO2 LTG DSNT ALQDS TSE09 PRESFR P0023 T01940189
KLFK 100001Z AUTO VRB05KT 2 1/2SM +TSRA BR FEW006 BKN025 OVC070 20/18 A2990 RMK AO2 LTG DSNT ALQDS P0008 T02000183
KLFK 092353Z AUTO 24008KT 5SM TSRA BR SCT027 BKN041 OVC070 20/18 A2991 RMK AO2 PK WND 03026/2255 WSHFT 2257 LTG DSNT ALQDS TSB2255 SLP126 P0052 60052 T02000183 10306 20194 53038
KLFK 092342Z AUTO 24004KT 4SM +TSRA BR BKN037 OVC070 19/18 A2989 RMK AO2 PK WND 03026/2255 WSHFT 2257 LTG DSNT ALQDS TSB2255 P0049 T01940183
KLFK 092332Z AUTO 28006KT 2SM +TSRA BR BKN031 BKN040 OVC047 20/18 A2986 RMK AO2 PK WND 03026/2255 WSHFT 2257 LTG DSNT ALQDS TSB2255 P0044 T02000178
KLFK 092323Z AUTO 28007G21KT 240V310 1 1/2SM +TSRA BR BKN021 BKN030 OVC050 19/18 A2985 RMK AO2 PK WND 03026/2255 WSHFT 2257 LTG DSNT ALQDS TSB2255 P0033 T01940178
KLFK 092319Z AUTO 28011G21KT 2 1/2SM +TSRA BR SCT023 BKN030 OVC055 20/18 A2987 RMK AO2 PK WND 03026/2255 WSHFT 2257 LTG DSNT ALQDS TSB2255 P0018 T02000178
KLFK 092317Z AUTO 28013G23KT 240V310 3SM +TSRA BR SCT027 BKN041 OVC050 20/18 A2987 RMK AO2 PK WND 03026/2255 WSHFT 2257 LTG DSNT ALQDS TSB2255 PRESRR P0012 T02000178
KLFK 092301Z AUTO 01012G26KT 10SM -TSRA BKN030 BKN075 OVC120 24/17 A2979 RMK AO2 PK WND 03026/2255 LTG DSNT ALQDS TSB2255 PRESRR P0000 T02390172
KLFK 092253Z AUTO 03009G18KT 8SM VCTS -RA FEW028 SCT090 BKN110 26/21 A2977 RMK AO2 LTG DSNT ALQDS RAB38 SLP076 P0000 T02560206
KLFK 092236Z AUTO 36004KT 9SM VCTS FEW090 BKN120 27/23 A2975 RMK AO2 LTG DSNT ALQDS T02720233
KLFK 092153Z AUTO 00000KT 10SM CLR 29/23 A2976 RMK AO2 LTG DSNT N AND NE SLP073 T02890228
KLFK 092053Z AUTO 00000KT 10SM SCT035 30/22 A2980 RMK AO2 SLP086 T03000222 56023
KLFK 091953Z AUTO 00000KT 10SM FEW028 30/22 A2981 RMK AO2 SLP089 T03000222
KLFK 091931Z AUTO 13004KT 10SM SCT025 30/23 A2980 RMK AO2 PRESFR T03000228
KLFK 091853Z AUTO 12004KT 10SM BKN026 29/23 A2984 RMK AO2 SLP100 T02890228
KLFK 091817Z AUTO 00000KT 10SM BKN024 BKN034 29/22 A2986 RMK AO2 T02890222
KLFK 091804Z AUTO 00000KT 10SM SCT023 BKN034 29/23 A2986 RMK AO2 T02940228
KLFK 091753Z AUTO 25004KT 10SM BKN022 OVC032 28/23 A2987 RMK AO2 SLP110 T02830228 10289 20217 58006
KLFK 091653Z AUTO 00000KT 10SM OVC021 28/22 A2989 RMK AO2 SLP117 T02780222
KLFK 091633Z AUTO 00000KT 10SM BKN017 28/22 A2989 RMK AO2 T02780222
KLFK 091553Z AUTO 21006KT 7SM FEW026 27/23 A2990 RMK AO2 SLP120 T02720228
KLFK 091453Z AUTO 00000KT 9SM SCT016 25/22 A2989 RMK AO2 SLP116 T02500222 51018
KLFK 091446Z AUTO 00000KT 8SM SCT016 25/22 A2989 RMK AO2 T02500222
KLFK 091421Z AUTO 00000KT 7SM BKN016 24/22 A2988 RMK AO2 T02390222
KLFK 091353Z AUTO 15003KT 5SM BR CLR 23/22 A2988 RMK AO2 SLP114 T02330217
KLFK 091253Z AUTO 02003KT 4SM BR CLR 23/22 A2988 RMK AO2 SLP112 T02280217
KLFK 091237Z AUTO 00000KT 3SM BR FEW003 22/21 A2986 RMK AO2 T02220211
KLFK 091216Z AUTO 00000KT 2SM BR CLR 22/21 A2984 RMK AO2 T02170211
KLFK 091153Z AUTO 00000KT 3SM BR CLR 22/21 A2983 RMK AO2 SLP098 T02220211 10239 20222 55001
KLFK 091053Z AUTO 22003KT 4SM BR CLR 22/21 A2982 RMK AO2 SLP094 T02220211
KLFK 090953Z AUTO 00000KT 3SM BR CLR 23/22 A2982 RMK AO2 SLP092 T02280217
KLFK 090919Z AUTO 00000KT 2SM BR CLR 22/22 A2983 RMK AO2 T02220217
KLFK 090853Z AUTO 00000KT 3SM BR FEW004 23/22 A2984 RMK AO2 SLP099 T02280217 56009